NKS1226 KPDX-KSEA
Flight info
| Callsign | NKS1226 |
|---|---|
| Flight time | 0h 31m |
| Altitude | 14000 |
| Route | COUGA KRIEG HAWKZ8 |
| Aircraft | A320/M-SDE3FGHIRWY/LB1 |
Departure
| Time | 2026-05-08 02:02 |
|---|---|
| Airport | Portland International Airport (KPDX) |
Arrival
| Time | 2026-05-08 02:34 |
|---|---|
| Airport | Seattle–Tacoma International Airport (KSEA) |
| Time | Latitude | Longitude | Altitude | Speed | Heading |
|---|---|---|---|---|---|
| 2026-05-08 01:42 | 45.58775 | -122.59493 | 29 ft | 0 kts | 41° |
| 2026-05-08 01:51 | 45.58775 | -122.59494 | 29 ft | 2 kts | 41° |
| 2026-05-08 01:51 | 45.58756 | -122.59517 | 29 ft | 4 kts | 37° |
| 2026-05-08 01:51 | 45.58738 | -122.59533 | 29 ft | 4 kts | 31° |
| 2026-05-08 01:51 | 45.58723 | -122.59557 | 29 ft | 4 kts | 89° |
| 2026-05-08 01:52 | 45.58729 | -122.59589 | 29 ft | 4 kts | 119° |
| 2026-05-08 01:52 | 45.58742 | -122.59623 | 29 ft | 4 kts | 119° |
| 2026-05-08 01:52 | 45.58750 | -122.59644 | 29 ft | 0 kts | 119° |
| 2026-05-08 01:57 | 45.58741 | -122.59618 | 29 ft | 6 kts | 118° |
| 2026-05-08 01:57 | 45.58717 | -122.59556 | 29 ft | 8 kts | 120° |
| 2026-05-08 01:57 | 45.58685 | -122.59480 | 29 ft | 10 kts | 121° |
| 2026-05-08 01:58 | 45.58641 | -122.59394 | 29 ft | 12 kts | 129° |
| 2026-05-08 01:58 | 45.58586 | -122.59299 | 29 ft | 13 kts | 129° |
| 2026-05-08 01:58 | 45.58524 | -122.59190 | 28 ft | 15 kts | 128° |
| 2026-05-08 01:58 | 45.58457 | -122.59067 | 28 ft | 16 kts | 129° |
| 2026-05-08 01:59 | 45.58387 | -122.58930 | 29 ft | 18 kts | 119° |
| 2026-05-08 01:59 | 45.58326 | -122.58771 | 29 ft | 19 kts | 119° |
| 2026-05-08 01:59 | 45.58260 | -122.58603 | 29 ft | 20 kts | 118° |
| 2026-05-08 01:59 | 45.58195 | -122.58435 | 29 ft | 16 kts | 120° |
| 2026-05-08 02:00 | 45.58148 | -122.58367 | 28 ft | 0 kts | 161° |
| 2026-05-08 02:00 | 45.58136 | -122.58364 | 28 ft | 6 kts | 172° |
| 2026-05-08 02:01 | 45.58091 | -122.58397 | 28 ft | 8 kts | 237° |
| 2026-05-08 02:01 | 45.58092 | -122.58479 | 29 ft | 8 kts | 283° |
| 2026-05-08 02:01 | 45.58100 | -122.58506 | 29 ft | 2 kts | 294° |
| 2026-05-08 02:01 | 45.58242 | -122.58871 | 30 ft | 82 kts | 300° |
| 2026-05-08 02:02 | 45.58636 | -122.59882 | 32 ft | 147 kts | 298° |
| 2026-05-08 02:02 | 45.59211 | -122.61300 | 285 ft | 176 kts | 301° |
| 2026-05-08 02:02 | 45.59847 | -122.62892 | 776 ft | 192 kts | 298° |
| 2026-05-08 02:02 | 45.60516 | -122.64569 | 1409 ft | 198 kts | 301° |
| 2026-05-08 02:03 | 45.61244 | -122.66359 | 1608 ft | 221 kts | 301° |
| 2026-05-08 02:03 | 45.62059 | -122.68371 | 1941 ft | 246 kts | 301° |
| 2026-05-08 02:03 | 45.62935 | -122.70536 | 2681 ft | 254 kts | 300° |
| 2026-05-08 02:03 | 45.63827 | -122.72733 | 3574 ft | 257 kts | 301° |
| 2026-05-08 02:04 | 45.64939 | -122.74719 | 4402 ft | 262 kts | 320° |
| 2026-05-08 02:04 | 45.66595 | -122.75880 | 5214 ft | 270 kts | 346° |
| 2026-05-08 02:04 | 45.68486 | -122.75895 | 6021 ft | 277 kts | 6° |
| 2026-05-08 02:04 | 45.70416 | -122.75515 | 6820 ft | 282 kts | 6° |
| 2026-05-08 02:05 | 45.72357 | -122.75118 | 7603 ft | 285 kts | 5° |
| 2026-05-08 02:05 | 45.74332 | -122.74713 | 8418 ft | 287 kts | 6° |
| 2026-05-08 02:05 | 45.76321 | -122.74310 | 9234 ft | 290 kts | 5° |
| 2026-05-08 02:05 | 45.78327 | -122.73909 | 10032 ft | 293 kts | 5° |
| 2026-05-08 02:06 | 45.80404 | -122.73500 | 10410 ft | 312 kts | 5° |
| 2026-05-08 02:06 | 45.82632 | -122.73069 | 10622 ft | 335 kts | 5° |
| 2026-05-08 02:06 | 45.85006 | -122.72604 | 10971 ft | 351 kts | 5° |
| 2026-05-08 02:06 | 45.87447 | -122.72115 | 11610 ft | 356 kts | 5° |
| 2026-05-08 02:07 | 45.89881 | -122.71621 | 12287 ft | 360 kts | 5° |
| 2026-05-08 02:07 | 45.92409 | -122.71109 | 12986 ft | 364 kts | 5° |
| 2026-05-08 02:07 | 45.94895 | -122.70604 | 13673 ft | 367 kts | 5° |
| 2026-05-08 02:07 | 45.97434 | -122.70093 | 13946 ft | 369 kts | 4° |
| 2026-05-08 02:08 | 46.00009 | -122.69583 | 14026 ft | 381 kts | 4° |
| 2026-05-08 02:08 | 46.02662 | -122.69058 | 14031 ft | 387 kts | 5° |
| 2026-05-08 02:08 | 46.05337 | -122.68522 | 14031 ft | 389 kts | 5° |
| 2026-05-08 02:08 | 46.08025 | -122.68014 | 14033 ft | 388 kts | 1° |
| 2026-05-08 02:09 | 46.10710 | -122.68038 | 14030 ft | 385 kts | 351° |
| 2026-05-08 02:09 | 46.13355 | -122.68548 | 14030 ft | 383 kts | 349° |
| 2026-05-08 02:09 | 46.15997 | -122.69075 | 14029 ft | 383 kts | 349° |
| 2026-05-08 02:09 | 46.18637 | -122.69596 | 14037 ft | 383 kts | 349° |
| 2026-05-08 02:10 | 46.21279 | -122.70114 | 14033 ft | 383 kts | 349° |
| 2026-05-08 02:10 | 46.23923 | -122.70627 | 14034 ft | 383 kts | 349° |
| 2026-05-08 02:10 | 46.26571 | -122.71144 | 14034 ft | 384 kts | 349° |
| 2026-05-08 02:10 | 46.29217 | -122.71664 | 14037 ft | 384 kts | 349° |
| 2026-05-08 02:11 | 46.31866 | -122.72170 | 14040 ft | 385 kts | 352° |
| 2026-05-08 02:11 | 46.34552 | -122.72324 | 14043 ft | 386 kts | 355° |
| 2026-05-08 02:11 | 46.37237 | -122.72416 | 14046 ft | 387 kts | 355° |
| 2026-05-08 02:11 | 46.39930 | -122.72506 | 14047 ft | 387 kts | 355° |
| 2026-05-08 02:12 | 46.42619 | -122.72599 | 14040 ft | 387 kts | 355° |
| 2026-05-08 02:12 | 46.45301 | -122.72690 | 13992 ft | 383 kts | 355° |
| 2026-05-08 02:12 | 46.47920 | -122.72780 | 13737 ft | 370 kts | 355° |
| 2026-05-08 02:12 | 46.50450 | -122.72870 | 13480 ft | 360 kts | 355° |
| 2026-05-08 02:13 | 46.52945 | -122.72963 | 13228 ft | 357 kts | 355° |
| 2026-05-08 02:13 | 46.55423 | -122.73055 | 12968 ft | 356 kts | 356° |
| 2026-05-08 02:13 | 46.57894 | -122.73144 | 12708 ft | 354 kts | 356° |
| 2026-05-08 02:13 | 46.60352 | -122.73229 | 12462 ft | 353 kts | 356° |
| 2026-05-08 02:14 | 46.62805 | -122.73314 | 12211 ft | 352 kts | 356° |
| 2026-05-08 02:14 | 46.65251 | -122.73402 | 12017 ft | 351 kts | 356° |
| 2026-05-08 02:14 | 46.67691 | -122.73494 | 12007 ft | 351 kts | 356° |
| 2026-05-08 02:14 | 46.70135 | -122.73585 | 12009 ft | 352 kts | 356° |
| 2026-05-08 02:15 | 46.72579 | -122.73672 | 12005 ft | 349 kts | 356° |
| 2026-05-08 02:15 | 46.74945 | -122.73757 | 12001 ft | 331 kts | 356° |
| 2026-05-08 02:15 | 46.77208 | -122.73463 | 11998 ft | 328 kts | 10° |
| 2026-05-08 02:15 | 46.79349 | -122.72393 | 12000 ft | 331 kts | 24° |
| 2026-05-08 02:16 | 46.81290 | -122.70577 | 11997 ft | 334 kts | 37° |
| 2026-05-08 02:16 | 46.83093 | -122.68428 | 11999 ft | 334 kts | 37° |
| 2026-05-08 02:16 | 46.84894 | -122.66288 | 11991 ft | 334 kts | 37° |
| 2026-05-08 02:16 | 46.86710 | -122.64180 | 11987 ft | 333 kts | 36° |
| 2026-05-08 02:17 | 46.88541 | -122.62098 | 11985 ft | 333 kts | 36° |
| 2026-05-08 02:17 | 46.90379 | -122.60025 | 11983 ft | 333 kts | 36° |
| 2026-05-08 02:17 | 46.92192 | -122.57980 | 11979 ft | 322 kts | 36° |
| 2026-05-08 02:17 | 46.94031 | -122.56264 | 11978 ft | 309 kts | 23° |
| 2026-05-08 02:18 | 46.96036 | -122.55191 | 11801 ft | 305 kts | 13° |
| 2026-05-08 02:18 | 46.98066 | -122.54324 | 11635 ft | 304 kts | 14° |
| 2026-05-08 02:18 | 47.00093 | -122.53450 | 11471 ft | 303 kts | 14° |
| 2026-05-08 02:18 | 47.02111 | -122.52573 | 11298 ft | 302 kts | 14° |
| 2026-05-08 02:19 | 47.04124 | -122.51694 | 11145 ft | 302 kts | 14° |
| 2026-05-08 02:19 | 47.06132 | -122.50813 | 10974 ft | 301 kts | 14° |
| 2026-05-08 02:19 | 47.08146 | -122.50008 | 10819 ft | 299 kts | 8° |
| 2026-05-08 02:19 | 47.10204 | -122.49610 | 10655 ft | 298 kts | 5° |
| 2026-05-08 02:20 | 47.12263 | -122.49235 | 10520 ft | 297 kts | 5° |
| 2026-05-08 02:20 | 47.14337 | -122.48858 | 10347 ft | 297 kts | 5° |
| 2026-05-08 02:20 | 47.16355 | -122.48493 | 10197 ft | 296 kts | 5° |
| 2026-05-08 02:20 | 47.18395 | -122.48125 | 10041 ft | 295 kts | 5° |
| 2026-05-08 02:21 | 47.20439 | -122.47765 | 9774 ft | 295 kts | 5° |
| 2026-05-08 02:21 | 47.22471 | -122.47441 | 9454 ft | 293 kts | 4° |
| 2026-05-08 02:21 | 47.24486 | -122.47136 | 9141 ft | 291 kts | 4° |
| 2026-05-08 02:21 | 47.26496 | -122.46840 | 8840 ft | 290 kts | 4° |
| 2026-05-08 02:22 | 47.28496 | -122.46544 | 8538 ft | 288 kts | 4° |
| 2026-05-08 02:22 | 47.30490 | -122.46245 | 8230 ft | 287 kts | 4° |
| 2026-05-08 02:22 | 47.32437 | -122.45948 | 8097 ft | 277 kts | 4° |
| 2026-05-08 02:22 | 47.34320 | -122.45662 | 7931 ft | 269 kts | 4° |
| 2026-05-08 02:23 | 47.36155 | -122.45532 | 7820 ft | 257 kts | 358° |
| 2026-05-08 02:23 | 47.37899 | -122.45548 | 7720 ft | 244 kts | 358° |
| 2026-05-08 02:23 | 47.39577 | -122.45545 | 7425 ft | 237 kts | 358° |
| 2026-05-08 02:23 | 47.41215 | -122.45541 | 7008 ft | 236 kts | 358° |
| 2026-05-08 02:24 | 47.42865 | -122.45539 | 6785 ft | 237 kts | 358° |
| 2026-05-08 02:24 | 47.44515 | -122.45527 | 6461 ft | 236 kts | 358° |
| 2026-05-08 02:24 | 47.46158 | -122.45513 | 6252 ft | 237 kts | 358° |
| 2026-05-08 02:24 | 47.47800 | -122.45514 | 5966 ft | 235 kts | 358° |
| 2026-05-08 02:25 | 47.49424 | -122.45531 | 5618 ft | 232 kts | 358° |
| 2026-05-08 02:25 | 47.51039 | -122.45559 | 5234 ft | 231 kts | 358° |
| 2026-05-08 02:25 | 47.52644 | -122.45591 | 4861 ft | 230 kts | 358° |
| 2026-05-08 02:25 | 47.54238 | -122.45626 | 4472 ft | 229 kts | 358° |
| 2026-05-08 02:26 | 47.55828 | -122.45663 | 4090 ft | 228 kts | 358° |
| 2026-05-08 02:26 | 47.57387 | -122.45703 | 3998 ft | 223 kts | 358° |
| 2026-05-08 02:26 | 47.58939 | -122.45744 | 4003 ft | 223 kts | 358° |
| 2026-05-08 02:26 | 47.60481 | -122.45783 | 4004 ft | 223 kts | 358° |
| 2026-05-08 02:27 | 47.62035 | -122.45822 | 4005 ft | 223 kts | 358° |
| 2026-05-08 02:27 | 47.63590 | -122.45859 | 4006 ft | 224 kts | 358° |
| 2026-05-08 02:27 | 47.65127 | -122.45888 | 3999 ft | 214 kts | 0° |
| 2026-05-08 02:27 | 47.66489 | -122.45272 | 3995 ft | 206 kts | 36° |
| 2026-05-08 02:28 | 47.67324 | -122.43595 | 4005 ft | 205 kts | 73° |
| 2026-05-08 02:28 | 47.67592 | -122.41519 | 4013 ft | 206 kts | 83° |
| 2026-05-08 02:28 | 47.67738 | -122.39397 | 4007 ft | 206 kts | 87° |
| 2026-05-08 02:28 | 47.67580 | -122.37307 | 3995 ft | 205 kts | 114° |
| 2026-05-08 02:29 | 47.66713 | -122.35677 | 4016 ft | 203 kts | 140° |
| 2026-05-08 02:29 | 47.65602 | -122.34378 | 4007 ft | 203 kts | 144° |
| 2026-05-08 02:29 | 47.64461 | -122.33132 | 4004 ft | 203 kts | 145° |
| 2026-05-08 02:29 | 47.63290 | -122.32025 | 3996 ft | 202 kts | 159° |
| 2026-05-08 02:30 | 47.61916 | -122.31625 | 3685 ft | 205 kts | 180° |
| 2026-05-08 02:30 | 47.60469 | -122.31643 | 3268 ft | 208 kts | 182° |
| 2026-05-08 02:30 | 47.59032 | -122.31670 | 2955 ft | 200 kts | 181° |
| 2026-05-08 02:30 | 47.57655 | -122.31686 | 2701 ft | 197 kts | 181° |
| 2026-05-08 02:31 | 47.56334 | -122.31698 | 2438 ft | 178 kts | 181° |
| 2026-05-08 02:31 | 47.55177 | -122.31708 | 2199 ft | 156 kts | 181° |
| 2026-05-08 02:31 | 47.54128 | -122.31717 | 1990 ft | 146 kts | 181° |
| 2026-05-08 02:31 | 47.53118 | -122.31726 | 1792 ft | 144 kts | 180° |
| 2026-05-08 02:32 | 47.52119 | -122.31735 | 1598 ft | 143 kts | 180° |
| 2026-05-08 02:32 | 47.51139 | -122.31744 | 1402 ft | 143 kts | 180° |
| 2026-05-08 02:32 | 47.50147 | -122.31753 | 1207 ft | 143 kts | 180° |
| 2026-05-08 02:32 | 47.49152 | -122.31761 | 1007 ft | 143 kts | 180° |
| 2026-05-08 02:33 | 47.48479 | -122.31766 | 887 ft | 143 kts | 181° |
| 2026-05-08 02:33 | 47.47148 | -122.31771 | 640 ft | 143 kts | 181° |
| 2026-05-08 02:33 | 47.46161 | -122.31794 | 461 ft | 141 kts | 182° |
| 2026-05-08 02:33 | 47.45513 | -122.31810 | 416 ft | 140 kts | 181° |
| 2026-05-08 02:34 | 47.44657 | -122.31819 | 383 ft | 100 kts | 180° |
| 2026-05-08 02:34 | 47.44217 | -122.31818 | 370 ft | 39 kts | 178° |
| 2026-05-08 02:34 | 47.44079 | -122.31749 | 364 ft | 8 kts | 114° |
| 2026-05-08 02:34 | 47.44069 | -122.31670 | 367 ft | 8 kts | 96° |
| 2026-05-08 02:35 | 47.44063 | -122.31581 | 371 ft | 10 kts | 102° |
| 2026-05-08 02:35 | 47.44020 | -122.31514 | 370 ft | 10 kts | 149° |
| 2026-05-08 02:35 | 47.43957 | -122.31458 | 371 ft | 11 kts | 149° |
| 2026-05-08 02:35 | 47.43886 | -122.31395 | 374 ft | 12 kts | 144° |
| 2026-05-08 02:36 | 47.43821 | -122.31317 | 371 ft | 12 kts | 124° |
| 2026-05-08 02:36 | 47.43808 | -122.31197 | 371 ft | 12 kts | 90° |
| 2026-05-08 02:36 | 47.43808 | -122.31060 | 372 ft | 14 kts | 90° |
| 2026-05-08 02:36 | 47.43807 | -122.30915 | 374 ft | 14 kts | 91° |
| 2026-05-08 02:37 | 47.43805 | -122.30775 | 376 ft | 14 kts | 89° |
| 2026-05-08 02:37 | 47.43832 | -122.30647 | 379 ft | 12 kts | 31° |
| 2026-05-08 02:37 | 47.43911 | -122.30637 | 381 ft | 11 kts | 1° |
| 2026-05-08 02:37 | 47.43987 | -122.30637 | 383 ft | 11 kts | 0° |
| 2026-05-08 02:38 | 47.44062 | -122.30637 | 385 ft | 11 kts | 0° |
| 2026-05-08 02:38 | 47.44139 | -122.30635 | 387 ft | 11 kts | 7° |
| 2026-05-08 02:38 | 47.44162 | -122.30596 | 388 ft | 1 kts | 76° |
| 2026-05-08 02:38 | 47.44163 | -122.30585 | 388 ft | 1 kts | 83° |
| 2026-05-08 02:39 | 47.44163 | -122.30566 | 388 ft | 3 kts | 89° |
| 2026-05-08 02:39 | 47.44163 | -122.30497 | 389 ft | 8 kts | 90° |
| 2026-05-08 02:39 | 47.44163 | -122.30467 | 389 ft | 2 kts | 90° |
| 2026-05-08 02:39 | 47.44163 | -122.30458 | 389 ft | 0 kts | 90° |